createdAt,value
2018-05-12T00:02:07.144Z,99173.77
2018-05-12T00:04:34.721Z,99177.34
2018-05-12T00:07:02.326Z,99180.27
2018-05-12T00:09:29.919Z,99179.34
2018-05-12T00:11:57.523Z,99180.64
2018-05-12T00:14:25.076Z,99186.46
2018-05-12T00:16:52.626Z,99189.95
2018-05-12T00:19:20.257Z,99186.73
2018-05-12T00:21:47.844Z,99182.22
2018-05-12T00:24:15.431Z,99178.92
2018-05-12T00:26:42.985Z,99185.77
2018-05-12T00:29:10.726Z,99181.38
2018-05-12T00:31:38.311Z,99187.34
2018-05-12T00:34:05.884Z,99184.55
2018-05-12T00:36:33.470Z,99179.52
2018-05-12T00:39:01.054Z,99179.94
2018-05-12T00:41:28.659Z,99175.61
2018-05-12T00:43:56.233Z,99184.17
2018-05-12T00:46:23.862Z,99186.59
2018-05-12T00:48:51.427Z,99187.84
2018-05-12T00:51:18.982Z,99183.52
2018-05-12T00:53:46.552Z,99179.38
2018-05-12T00:56:14.098Z,99173.09
2018-05-12T00:58:41.695Z,99177.47
2018-05-12T01:01:09.281Z,99177.83
2018-05-12T01:03:36.899Z,99179.19
2018-05-12T01:06:04.474Z,99181.80
2018-05-12T01:08:32.134Z,99179.19
2018-05-12T01:10:59.725Z,99179.66
2018-05-12T01:13:27.300Z,99181.59
2018-05-12T01:15:54.884Z,99180.28
2018-05-12T01:18:22.503Z,99172.84
2018-05-12T01:20:50.112Z,99178.55
2018-05-12T01:23:17.704Z,99181.63
2018-05-12T01:25:45.329Z,99186.64
2018-05-12T01:28:12.907Z,99191.27
2018-05-12T01:30:40.567Z,99185.08
2018-05-12T01:33:08.171Z,99192.87
2018-05-12T01:35:35.724Z,99190.22
2018-05-12T01:38:03.345Z,99191.66
2018-05-12T01:40:30.947Z,99190.47
2018-05-12T01:42:58.528Z,99186.48
2018-05-12T01:45:26.109Z,99186.50
2018-05-12T01:47:53.681Z,99185.47
2018-05-12T01:50:21.260Z,99185.13
2018-05-12T01:52:48.845Z,99187.59
2018-05-12T01:55:16.474Z,99188.45
2018-05-12T01:57:44.060Z,99185.44
2018-05-12T02:00:11.684Z,99186.34
2018-05-12T02:02:39.256Z,99184.60
2018-05-12T02:05:06.888Z,99188.77
2018-05-12T02:07:34.469Z,99194.63
2018-05-12T02:10:02.243Z,99198.34
2018-05-12T02:12:29.815Z,99198.70
2018-05-12T02:14:57.403Z,99199.81
2018-05-12T02:17:25.113Z,99192.19
2018-05-12T02:19:52.689Z,99189.94
2018-05-12T02:22:20.269Z,99184.73
2018-05-12T02:24:47.857Z,99186.56
2018-05-12T02:27:15.431Z,99174.44
2018-05-12T02:29:43.068Z,99175.91
2018-05-12T02:32:10.641Z,99177.78
2018-05-12T02:34:38.232Z,99180.39
2018-05-12T02:37:05.772Z,99176.41
2018-05-12T02:39:33.342Z,99171.33
2018-05-12T02:42:00.917Z,99176.53
2018-05-12T02:44:28.480Z,99182.68
2018-05-12T02:46:56.083Z,99187.00
2018-05-12T02:49:23.743Z,99192.02
2018-05-12T02:51:51.305Z,99191.89
2018-05-12T02:54:18.908Z,99191.86
2018-05-12T02:56:46.496Z,99204.73
2018-05-12T02:59:14.084Z,99203.14
2018-05-12T03:01:41.654Z,99199.34
2018-05-12T03:04:09.247Z,99199.89
2018-05-12T03:06:36.972Z,99207.28
2018-05-12T03:09:04.592Z,99206.34
2018-05-12T03:11:32.164Z,99209.63
2018-05-12T03:13:59.733Z,99209.55
2018-05-12T03:16:27.359Z,99204.09
2018-05-12T03:18:54.922Z,99204.25
2018-05-12T03:21:22.468Z,99203.91
2018-05-12T03:23:50.035Z,99202.98
2018-05-12T03:26:17.713Z,99207.51
2018-05-12T03:28:45.300Z,99211.72
2018-05-12T03:31:12.944Z,99206.69
2018-05-12T03:33:40.511Z,99210.24
2018-05-12T03:36:08.085Z,99213.83
2018-05-12T03:38:35.805Z,99204.81
2018-05-12T03:41:03.409Z,99213.67
2018-05-12T03:43:30.985Z,99211.77
2018-05-12T03:45:58.579Z,99209.98
2018-05-12T03:48:26.274Z,99216.63
2018-05-12T03:50:53.892Z,99213.24
2018-05-12T03:53:21.479Z,99213.91
2018-05-12T03:55:49.049Z,99206.00
2018-05-12T03:58:16.659Z,99210.39
2018-05-12T04:00:44.277Z,99204.15
2018-05-12T04:03:11.876Z,99212.92
2018-05-12T04:05:51.234Z,99211.92
2018-05-12T04:08:30.709Z,99209.66
2018-05-12T04:14:00.839Z,99204.48
2018-05-12T04:16:28.472Z,99207.32
2018-05-12T04:18:56.037Z,99205.14
2018-05-12T04:21:23.621Z,99211.23
2018-05-12T04:23:51.196Z,99203.35
2018-05-12T04:26:18.774Z,99216.10
2018-05-12T04:28:46.400Z,99220.57
2018-05-12T04:31:14.086Z,99221.47
2018-05-12T04:33:41.675Z,99209.48
2018-05-12T04:36:09.279Z,99212.92
2018-05-12T04:38:36.874Z,99206.70
2018-05-12T04:41:04.465Z,99206.56
2018-05-12T04:43:32.044Z,99208.05
2018-05-12T04:45:59.673Z,99208.80
2018-05-12T04:48:27.268Z,99197.08
2018-05-12T04:50:54.876Z,99202.78
2018-05-12T04:53:22.434Z,99204.59
2018-05-12T04:55:49.997Z,99210.67
2018-05-12T04:58:17.568Z,99203.63
2018-05-12T05:00:45.161Z,99201.78
2018-05-12T05:03:12.784Z,99203.11
2018-05-12T05:05:40.355Z,99203.66
2018-05-12T05:08:07.922Z,99201.97
2018-05-12T05:10:35.487Z,99200.63
2018-05-12T05:13:03.039Z,99206.19
2018-05-12T05:15:30.627Z,99211.25
2018-05-12T05:17:58.197Z,99208.84
2018-05-12T05:20:25.836Z,99199.53
2018-05-12T05:22:53.425Z,99195.86
2018-05-12T05:25:20.988Z,99194.37
2018-05-12T05:27:48.593Z,99201.47
2018-05-12T05:30:16.155Z,99200.66
2018-05-12T05:32:43.722Z,99206.05
2018-05-12T05:35:11.296Z,99211.81
2018-05-12T05:37:38.903Z,99206.35
2018-05-12T05:40:06.581Z,99203.34
2018-05-12T05:42:34.148Z,99201.46
2018-05-12T05:45:01.731Z,99201.18
2018-05-12T05:47:29.303Z,99205.51
2018-05-12T05:49:56.883Z,99208.77
2018-05-12T05:52:24.447Z,99214.88
2018-05-12T05:54:52.064Z,99211.71
2018-05-12T05:57:19.621Z,99207.46
2018-05-12T05:59:47.199Z,99199.04
2018-05-12T06:02:14.801Z,99200.55
2018-05-12T06:04:42.466Z,99198.98
2018-05-12T06:07:10.092Z,99206.23
2018-05-12T06:09:37.645Z,99202.17
2018-05-12T06:12:05.272Z,99200.43
2018-05-12T06:14:32.878Z,99188.41
2018-05-12T06:17:00.441Z,99186.71
2018-05-12T06:19:28.005Z,99186.16
2018-05-12T06:21:55.684Z,99187.72
2018-05-12T06:24:23.262Z,99183.64
2018-05-12T06:26:50.856Z,99184.69
2018-05-12T06:29:18.539Z,99189.83
2018-05-12T06:31:46.166Z,99185.13
2018-05-12T06:34:13.720Z,99188.00
2018-05-12T06:36:41.326Z,99188.20
2018-05-12T06:39:09.114Z,99182.59
2018-05-12T06:41:36.827Z,99175.14
2018-05-12T06:44:04.384Z,99172.20
2018-05-12T06:46:32.172Z,99173.75
2018-05-12T06:48:59.753Z,99166.78
2018-05-12T06:51:27.352Z,99169.58
2018-05-12T06:53:54.949Z,99170.47
2018-05-12T06:56:22.536Z,99163.29
2018-05-12T06:58:50.161Z,99167.41
2018-05-12T07:01:17.756Z,99172.81
2018-05-12T07:03:45.413Z,99170.06
2018-05-12T07:06:13.011Z,99170.58
2018-05-12T07:08:40.736Z,99172.77
2018-05-12T07:11:08.336Z,99168.98
2018-05-12T07:13:35.891Z,99154.39
2018-05-12T07:16:03.481Z,99159.56
2018-05-12T07:18:31.100Z,99161.61
2018-05-12T07:20:58.817Z,99165.68
2018-05-12T07:23:26.392Z,99169.82
2018-05-12T07:25:54.125Z,99174.80
2018-05-12T07:28:21.725Z,99172.02
2018-05-12T07:30:49.498Z,99168.41
2018-05-12T07:33:17.320Z,99160.73
2018-05-12T07:35:44.892Z,99165.16
2018-05-12T07:38:12.508Z,99162.97
2018-05-12T07:40:40.081Z,99167.73
2018-05-12T07:43:07.992Z,99168.34
2018-05-12T07:45:35.814Z,99169.16
2018-05-12T07:48:03.443Z,99170.13
2018-05-12T07:50:31.014Z,99172.58
2018-05-12T07:52:58.660Z,99162.83
2018-05-12T07:55:26.305Z,99162.15
2018-05-12T07:57:53.878Z,99153.84
2018-05-12T08:00:21.483Z,99159.42
2018-05-12T08:02:49.060Z,99166.98
2018-05-12T08:05:16.643Z,99160.05
2018-05-12T08:07:44.470Z,99160.48
2018-05-12T08:10:12.170Z,99161.75
2018-05-12T08:12:39.907Z,99160.89
2018-05-12T08:15:07.479Z,99159.28
2018-05-12T08:17:35.127Z,99157.83
2018-05-12T08:20:02.963Z,99159.25
2018-05-12T08:22:30.681Z,99153.83
2018-05-12T08:24:58.413Z,99156.71
2018-05-12T08:27:26.128Z,99156.81
2018-05-12T08:29:53.748Z,99152.42
2018-05-12T08:32:21.459Z,99139.41
2018-05-12T08:34:49.172Z,99146.55
2018-05-12T08:37:16.862Z,99148.88
2018-05-12T08:39:44.499Z,99142.69
2018-05-12T08:42:12.196Z,99142.06
2018-05-12T08:44:39.777Z,99143.02
2018-05-12T08:47:07.360Z,99148.66
2018-05-12T08:49:34.940Z,99141.86
2018-05-12T08:52:02.587Z,99140.25
2018-05-12T08:54:30.197Z,99144.91
2018-05-12T08:56:57.757Z,99140.97
2018-05-12T08:59:25.314Z,99145.67
2018-05-12T09:01:53.169Z,99137.18
2018-05-12T09:04:20.762Z,99132.58
2018-05-12T09:06:48.348Z,99132.93
2018-05-12T09:09:15.916Z,99136.83
2018-05-12T09:11:43.540Z,99139.09
2018-05-12T09:14:11.097Z,99134.00
2018-05-12T09:16:38.661Z,99130.23
2018-05-12T09:19:06.284Z,99129.82
2018-05-12T09:21:33.877Z,99125.45
2018-05-12T09:24:01.457Z,99117.80
2018-05-12T09:26:29.022Z,99116.25
2018-05-12T09:28:56.633Z,99113.69
2018-05-12T09:31:24.230Z,99110.95
2018-05-12T09:33:51.813Z,99117.00
2018-05-12T09:36:19.394Z,99109.86
2018-05-12T09:38:47.146Z,99106.89
2018-05-12T09:41:14.725Z,99108.16
2018-05-12T09:43:42.295Z,99100.31
2018-05-12T09:46:09.950Z,99103.11
2018-05-12T09:48:37.604Z,99100.19
2018-05-12T09:51:05.223Z,99092.83
2018-05-12T09:53:33.046Z,99092.08
2018-05-12T09:56:00.764Z,99086.66
2018-05-12T09:58:28.584Z,99086.66
2018-05-12T10:00:56.292Z,99090.86
2018-05-12T10:03:24.016Z,99080.30
2018-05-12T10:05:51.623Z,99077.80
2018-05-12T10:08:19.189Z,99081.66
2018-05-12T10:10:46.865Z,99079.24
2018-05-12T10:13:14.592Z,99084.48
2018-05-12T10:15:42.411Z,99082.77
2018-05-12T10:18:09.992Z,99086.52
2018-05-12T10:20:37.751Z,99085.94
2018-05-12T10:23:05.450Z,99087.30
2018-05-12T10:25:33.362Z,99080.02
2018-05-12T10:28:01.350Z,99084.28
2018-05-12T10:30:29.262Z,99079.58
2018-05-12T10:32:57.270Z,99066.90
2018-05-12T10:35:25.189Z,99069.92
2018-05-12T10:37:53.007Z,99070.48
2018-05-12T10:40:21.031Z,99072.70
2018-05-12T10:42:49.050Z,99071.98
2018-05-12T10:45:17.067Z,99066.81
2018-05-12T10:47:44.986Z,99064.81
2018-05-12T10:50:13.005Z,99066.80
2018-05-12T10:52:41.024Z,99063.28
2018-05-12T10:55:08.604Z,99061.41
2018-05-12T10:57:36.185Z,99058.45
2018-05-12T11:00:03.942Z,99053.72
2018-05-12T11:02:31.520Z,99052.48
2018-05-12T11:04:59.093Z,99047.85
2018-05-12T11:07:26.682Z,99040.37
2018-05-12T11:09:54.297Z,99038.19
2018-05-12T11:12:21.909Z,99017.98
2018-05-12T11:14:49.469Z,99026.62
2018-05-12T11:17:17.047Z,99024.62
2018-05-12T11:19:44.591Z,99028.89
2018-05-12T11:22:12.175Z,99029.47
2018-05-12T11:24:39.719Z,99028.80
2018-05-12T11:27:07.335Z,99025.05
2018-05-12T11:29:34.927Z,99020.13
2018-05-12T11:32:02.480Z,99016.16
2018-05-12T11:34:30.060Z,99015.54
2018-05-12T11:36:58.209Z,99013.42
2018-05-12T11:39:25.924Z,99017.69
2018-05-12T11:41:54.382Z,99013.16
2018-05-12T11:44:23.171Z,99006.36
2018-05-12T11:46:50.831Z,99005.82
2018-05-12T11:49:18.568Z,99007.03
2018-05-12T11:51:51.747Z,99000.82
2018-05-12T11:54:20.169Z,99000.72
2018-05-12T11:56:50.195Z,98995.83
2018-05-12T11:59:17.812Z,99001.31
2018-05-12T12:01:45.380Z,98991.88
2018-05-12T12:04:12.977Z,98990.81
2018-05-12T12:06:40.543Z,98985.41
2018-05-12T12:09:08.181Z,98987.34
2018-05-12T12:11:35.741Z,98974.28
2018-05-12T12:14:03.405Z,98976.11
2018-05-12T12:16:30.980Z,98964.91
2018-05-12T12:18:58.553Z,98945.84
2018-05-12T12:21:26.188Z,98950.49
2018-05-12T12:23:53.748Z,98943.70
2018-05-12T12:26:21.329Z,98945.84
2018-05-12T12:28:48.902Z,98939.63
2018-05-12T12:31:16.536Z,98931.47
2018-05-12T12:33:44.120Z,98926.20
2018-05-12T12:36:11.737Z,98931.33
2018-05-12T12:38:39.327Z,98916.89
2018-05-12T12:41:06.888Z,98914.56
2018-05-12T12:43:34.647Z,98913.46
2018-05-12T12:46:02.771Z,98914.14
2018-05-12T12:48:30.329Z,98911.58
2018-05-12T12:50:57.911Z,98904.34
2018-05-12T12:53:25.480Z,98903.89
2018-05-12T12:55:53.085Z,98903.30
2018-05-12T12:58:20.829Z,98893.57
2018-05-12T13:00:48.465Z,98887.02
2018-05-12T13:03:16.046Z,98894.09
2018-05-12T13:05:52.113Z,98886.76
2018-05-12T13:08:19.713Z,98868.16
2018-05-12T13:10:47.359Z,98876.95
2018-05-12T13:13:14.984Z,98871.61
2018-05-12T13:15:42.558Z,98864.31
2018-05-12T13:18:10.152Z,98864.64
2018-05-12T13:20:37.723Z,98852.55
2018-05-12T13:23:05.349Z,98862.06
2018-05-12T13:25:32.999Z,98865.13
2018-05-12T13:28:00.585Z,98858.73
2018-05-12T13:30:28.230Z,98852.89
2018-05-12T13:32:55.809Z,98858.11
2018-05-12T13:35:23.427Z,98849.92
2018-05-12T13:37:51.010Z,98849.09
2018-05-12T13:40:18.593Z,98848.85
2018-05-12T13:42:46.163Z,98845.65
2018-05-12T13:45:13.761Z,98842.47
2018-05-12T13:47:41.429Z,98854.65
2018-05-12T13:50:09.009Z,98841.20
2018-05-12T13:52:36.564Z,98837.33
2018-05-12T13:55:04.188Z,98840.75
2018-05-12T13:57:31.750Z,98835.81
2018-05-12T13:59:59.290Z,98833.33
2018-05-12T14:02:26.871Z,98836.80
2018-05-12T14:04:54.433Z,98831.47
2018-05-12T14:07:22.324Z,98831.66
2018-05-12T14:09:49.894Z,98830.09
2018-05-12T14:12:17.537Z,98826.95
2018-05-12T14:14:45.100Z,98825.81
2018-05-12T14:17:12.748Z,98827.91
2018-05-12T14:19:40.362Z,98829.23
2018-05-12T14:22:07.979Z,98821.66
2018-05-12T14:24:35.577Z,98829.11
2018-05-12T14:27:03.154Z,98824.89
2018-05-12T14:29:30.840Z,98825.85
2018-05-12T14:31:58.441Z,98833.97
2018-05-12T14:34:25.989Z,98821.47
2018-05-12T14:36:53.564Z,98821.63
2018-05-12T14:39:21.132Z,98820.59
2018-05-12T14:41:48.784Z,98820.81
2018-05-12T14:44:16.370Z,98812.17
2018-05-12T14:46:43.937Z,98814.80
2018-05-12T14:49:11.512Z,98807.84
2018-05-12T14:51:39.084Z,98804.98
2018-05-12T14:54:06.724Z,98809.63
2018-05-12T14:56:34.313Z,98812.02
2018-05-12T14:59:01.948Z,98808.50
2018-05-12T15:01:29.571Z,98809.95
2018-05-12T15:03:57.138Z,98796.55
2018-05-12T15:06:24.708Z,98800.32
2018-05-12T15:08:52.423Z,98802.63
2018-05-12T15:11:19.978Z,98806.13
2018-05-12T15:13:47.627Z,98804.42
2018-05-12T15:16:15.274Z,98803.91
2018-05-12T15:18:42.822Z,98800.31
2018-05-12T15:21:10.388Z,98803.53
2018-05-12T15:23:37.938Z,98800.23
2018-05-12T15:26:05.749Z,98800.91
2018-05-12T15:28:33.343Z,98802.98
2018-05-12T15:31:00.913Z,98799.17
2018-05-12T15:33:28.522Z,98805.97
2018-05-12T15:35:56.091Z,98807.16
2018-05-12T15:38:23.646Z,98811.48
2018-05-12T15:40:51.231Z,98803.67
2018-05-12T15:43:18.815Z,98808.89
2018-05-12T15:45:46.488Z,98809.81
2018-05-12T15:48:14.055Z,98811.44
2018-05-12T15:50:41.660Z,98813.17
2018-05-12T15:53:09.248Z,98806.45
2018-05-12T15:55:36.795Z,98805.31
2018-05-12T15:58:04.520Z,98810.06
2018-05-12T16:00:32.127Z,98806.24
2018-05-12T16:02:59.786Z,98799.23
2018-05-12T16:05:27.287Z,98805.78
2018-05-12T16:07:54.914Z,98803.90
2018-05-12T16:10:22.485Z,98806.72
2018-05-12T16:12:50.076Z,98806.55
2018-05-12T16:15:17.654Z,98812.11
2018-05-12T16:17:45.319Z,98809.72
2018-05-12T16:20:12.933Z,98809.97
2018-05-12T16:22:40.503Z,98814.38
2018-05-12T16:25:08.069Z,98809.34
2018-05-12T16:27:35.637Z,98803.76
2018-05-12T16:30:03.313Z,98809.92
2018-05-12T16:32:30.929Z,98814.17
2018-05-12T16:34:58.551Z,98811.94
2018-05-12T16:37:26.249Z,98816.92
2018-05-12T16:39:53.767Z,98821.49
2018-05-12T16:42:21.329Z,98819.37
2018-05-12T16:44:48.888Z,98823.53
2018-05-12T16:47:16.537Z,98827.48
2018-05-12T16:49:44.164Z,98833.16
2018-05-12T16:52:11.699Z,98829.48
2018-05-12T16:54:39.393Z,98828.97
2018-05-12T16:57:06.983Z,98836.97
2018-05-12T16:59:34.611Z,98832.48
2018-05-12T17:02:02.248Z,98832.48
2018-05-12T17:04:29.806Z,98838.11
2018-05-12T17:06:57.388Z,98837.23
2018-05-12T17:09:24.950Z,98834.73
2018-05-12T17:11:52.547Z,98837.88
2018-05-12T17:14:20.241Z,98834.30
2018-05-12T17:16:47.857Z,98839.04
2018-05-12T17:19:15.432Z,98833.48
2018-05-12T17:21:43.079Z,98840.45
2018-05-12T17:24:10.733Z,98845.41
2018-05-12T17:26:38.428Z,98839.50
2018-05-12T17:29:06.439Z,98839.95
2018-05-12T17:31:33.996Z,98847.01
2018-05-12T17:34:01.569Z,98850.11
2018-05-12T17:36:29.136Z,98847.56
2018-05-12T17:38:56.732Z,98844.79
2018-05-12T17:41:24.336Z,98851.73
2018-05-12T17:43:51.956Z,98847.95
2018-05-12T17:46:19.566Z,98854.84
2018-05-12T17:48:47.183Z,98860.85
2018-05-12T17:51:14.819Z,98863.76
2018-05-12T17:53:42.371Z,98858.54
2018-05-12T17:56:10.115Z,98864.65
2018-05-12T17:58:37.761Z,98868.16
2018-05-12T18:01:05.394Z,98861.20
2018-05-12T18:03:33.068Z,98860.14
2018-05-12T18:06:00.661Z,98862.67
2018-05-12T18:08:28.229Z,98864.94
2018-05-12T18:10:55.800Z,98868.58
2018-05-12T18:13:23.389Z,98873.10
2018-05-12T18:15:50.989Z,98879.23
2018-05-12T18:18:18.806Z,98879.20
2018-05-12T18:20:46.366Z,98875.70
2018-05-12T18:23:14.044Z,98885.52
2018-05-12T18:25:41.660Z,98887.70
2018-05-12T18:28:09.219Z,98881.64
2018-05-12T18:30:36.828Z,98890.16
2018-05-12T18:33:04.437Z,98886.09
2018-05-12T18:35:32.331Z,98888.72
2018-05-12T18:38:00.027Z,98895.78
2018-05-12T18:40:27.596Z,98893.23
2018-05-12T18:42:55.228Z,98891.48
2018-05-12T18:45:22.911Z,98895.59
2018-05-12T18:47:50.513Z,98892.53
2018-05-12T18:50:18.335Z,98891.36
2018-05-12T18:52:46.017Z,98897.56
2018-05-12T18:55:13.580Z,98891.92
2018-05-12T18:57:41.159Z,98901.76
2018-05-12T19:00:08.897Z,98904.98
2018-05-12T19:02:37.883Z,98895.73
2018-05-12T19:05:05.541Z,98904.28
2018-05-12T19:07:33.103Z,98904.58
2018-05-12T19:10:00.676Z,98896.22
2018-05-12T19:12:28.261Z,98896.10
2018-05-12T19:14:55.925Z,98896.52
2018-05-12T19:17:23.909Z,98901.83
2018-05-12T19:19:51.511Z,98908.84
2018-05-12T19:22:19.284Z,98907.95
2018-05-12T19:24:46.882Z,98905.27
2018-05-12T19:27:14.522Z,98912.98
2018-05-12T19:29:42.133Z,98914.32
2018-05-12T19:32:09.704Z,98917.91
2018-05-12T19:34:38.143Z,98914.33
2018-05-12T19:37:05.820Z,98913.11
2018-05-12T19:39:33.364Z,98922.45
2018-05-12T19:42:00.997Z,98919.09
2018-05-12T19:44:28.780Z,98919.88
2018-05-12T19:46:56.468Z,98921.75
2018-05-12T19:49:24.065Z,98924.07
2018-05-12T19:51:51.728Z,98925.08
2018-05-12T19:54:19.296Z,98922.16
2018-05-12T19:56:46.906Z,98922.05
2018-05-12T19:59:14.500Z,98926.25
2018-05-12T20:01:42.078Z,98920.70
2018-05-12T20:04:09.681Z,98928.03
2018-05-12T20:06:37.244Z,98928.34
2018-05-12T20:09:04.928Z,98923.19
2018-05-12T20:11:32.481Z,98922.66
2018-05-12T20:14:00.044Z,98930.06
2018-05-12T20:16:27.683Z,98925.03
2018-05-12T20:18:55.652Z,98925.91
2018-05-12T20:21:23.326Z,98926.74
2018-05-12T20:23:50.899Z,98931.52
2018-05-12T20:26:18.526Z,98928.47
2018-05-12T20:28:46.076Z,98927.68
2018-05-12T20:31:13.668Z,98923.16
2018-05-12T20:33:41.256Z,98918.21
2018-05-12T20:36:08.852Z,98914.97
2018-05-12T20:38:36.430Z,98920.39
2018-05-12T20:41:04.965Z,98916.11
2018-05-12T20:43:32.616Z,98924.88
2018-05-12T20:46:00.235Z,98922.02
2018-05-12T20:48:27.817Z,98923.22
2018-05-12T20:50:55.405Z,98921.22
2018-05-12T20:53:23.156Z,98921.36
2018-05-12T20:55:50.770Z,98925.20
2018-05-12T20:58:18.315Z,98930.03
2018-05-12T21:00:46.116Z,98930.10
2018-05-12T21:03:13.934Z,98929.16
2018-05-12T21:05:41.497Z,98925.58
2018-05-12T21:08:09.060Z,98926.34
2018-05-12T21:10:36.612Z,98924.72
2018-05-12T21:13:04.260Z,98933.11
2018-05-12T21:15:31.827Z,98930.24
2018-05-12T21:17:59.388Z,98933.52
2018-05-12T21:20:26.977Z,98928.72
2018-05-12T21:22:54.537Z,98922.44
2018-05-12T21:25:22.104Z,98920.40
2018-05-12T21:27:49.664Z,98922.54
2018-05-12T21:30:17.534Z,98925.81
2018-05-12T21:32:45.088Z,98923.05
2018-05-12T21:35:12.869Z,98927.39
2018-05-12T21:37:40.431Z,98919.80
2018-05-12T21:40:08.172Z,98922.91
2018-05-12T21:42:35.889Z,98923.00
2018-05-12T21:45:03.513Z,98926.87
2018-05-12T21:47:31.130Z,98920.48
2018-05-12T21:49:58.684Z,98918.30
2018-05-12T21:52:26.237Z,98916.74
2018-05-12T21:54:53.973Z,98911.10
2018-05-12T21:57:21.561Z,98912.19
2018-05-12T21:59:49.188Z,98912.91
2018-05-12T22:02:16.772Z,98918.08
2018-05-12T22:04:44.397Z,98910.95
2018-05-12T22:07:11.971Z,98915.55
2018-05-12T22:09:39.537Z,98914.49
2018-05-12T22:12:07.337Z,98909.69
2018-05-12T22:14:35.034Z,98913.88
2018-05-12T22:17:02.748Z,98913.06
2018-05-12T22:19:30.309Z,98907.66
2018-05-12T22:21:58.081Z,98907.48
2018-05-12T22:24:25.640Z,98907.57
2018-05-12T22:26:53.196Z,98900.70
2018-05-12T22:29:20.766Z,98898.95
2018-05-12T22:31:48.328Z,98900.77
2018-05-12T22:34:16.065Z,98902.55
2018-05-12T22:36:43.782Z,98906.33
2018-05-12T22:39:11.638Z,98901.36
2018-05-12T22:41:39.247Z,98905.09
2018-05-12T22:44:06.800Z,98902.40
2018-05-12T22:46:34.592Z,98901.83
2018-05-12T22:49:02.144Z,98911.37
2018-05-12T22:51:29.708Z,98903.17
2018-05-12T22:53:57.423Z,98902.76
2018-05-12T22:56:25.149Z,98901.87
2018-05-12T22:58:52.883Z,98900.97
2018-05-12T23:01:20.701Z,98898.91
2018-05-12T23:03:48.260Z,98908.70
2018-05-12T23:06:15.858Z,98904.67
2018-05-12T23:08:43.424Z,98904.64
2018-05-12T23:11:10.989Z,98904.72
2018-05-12T23:13:38.792Z,98909.01
2018-05-12T23:16:06.351Z,98907.61
2018-05-12T23:18:33.940Z,98907.45
2018-05-12T23:21:01.517Z,98906.62
2018-05-12T23:23:29.081Z,98908.50
2018-05-12T23:25:56.653Z,98906.98
2018-05-12T23:28:24.217Z,98908.45
2018-05-12T23:30:51.915Z,98907.14
2018-05-12T23:33:19.518Z,98908.55
2018-05-12T23:35:47.682Z,98908.50
2018-05-12T23:38:15.381Z,98908.81
2018-05-12T23:40:42.960Z,98905.88
2018-05-12T23:43:10.569Z,98907.09
2018-05-12T23:45:38.133Z,98896.27
2018-05-12T23:48:05.691Z,98898.52
2018-05-12T23:50:33.461Z,98894.66
2018-05-12T23:53:01.020Z,98903.28
2018-05-12T23:55:28.581Z,98891.00
2018-05-12T23:57:56.153Z,98888.91
